Time;durP1;ratioP1;P1;durP2;ratioP2;P2;SDS_P1;SDS_P2;PMS_P1;PMS_P2;Temp;Humidity;BMP_temperature;BMP_pressure;BME280_temperature;BME280_humidity;BME280_pressure;Samples;Min_cycle;Max_cycle;Signal;HPM_P1;HPM_P2
2023/07/05 04:49:34;;;;;;;8.00;2.03;;;;;;;15.56;89.41;96164.47;2088160;28;20558;-58
2023/07/05 07:29:08;;;;;;;5.30;1.98;;;;;;;16.11;96.30;96341.34;2100664;27;20570;-60
2023/07/05 07:30:10;;;;;;;3.80;1.83;;;;;;;16.28;95.46;96342.75;2088749;28;20289;-60
2023/07/05 07:31:14;;;;;;;3.30;1.88;;;;;;;16.52;93.40;96338.41;2087878;28;20283;-60
2023/07/05 07:32:16;;;;;;;3.20;1.63;;;;;;;16.69;92.80;96353.84;2091316;28;20666;-60
2023/07/05 07:33:17;;;;;;;2.15;1.27;;;;;;;16.63;93.20;96327.94;2094859;28;20247;-60
2023/07/05 07:34:19;;;;;;;3.60;1.70;;;;;;;16.73;92.70;96352.66;2094294;28;20200;-60
2023/07/05 07:35:21;;;;;;;2.40;1.27;;;;;;;16.60;91.59;96350.09;2087254;28;20950;-60
2023/07/05 07:43:32;;;;;;;3.47;1.60;;;;;;;16.19;91.85;96364.50;2087065;27;20548;-59
2023/07/05 07:44:33;;;;;;;5.65;1.55;;;;;;;16.35;92.11;96364.22;2082640;28;20730;-60
2023/07/05 07:45:34;;;;;;;2.83;1.60;;;;;;;16.35;91.88;96364.22;2078965;28;20201;-60
2023/07/05 07:52:10;;;;;;;5.97;2.53;;;;;;;15.91;90.86;96368.22;2106354;27;20581;-59
2023/07/05 07:53:12;;;;;;;10.00;2.88;;;;;;;15.98;90.62;96375.59;2106186;28;20650;-59
2023/07/05 07:56:27;;;;;;;5.15;2.15;;;;;;;15.95;90.66;96373.19;2086044;28;20556;-59
2023/07/05 07:58:50;;;;;;;4.05;2.47;;;;;;;15.96;88.84;96374.88;2106093;27;20561;-59
2023/07/05 07:59:52;;;;;;;6.03;2.67;;;;;;;16.16;88.65;96384.00;2095676;28;20314;-59
2023/07/05 08:00:53;;;;;;;3.22;1.83;;;;;;;16.26;89.24;96380.69;2091984;28;20661;-60
2023/07/05 08:01:55;;;;;;;6.30;2.50;;;;;;;16.30;88.06;96383.00;2090732;28;20224;-59
2023/07/05 08:02:57;;;;;;;3.85;2.25;;;;;;;16.42;87.99;96390.97;2090361;28;20243;-59
2023/07/05 08:04:01;;;;;;;5.60;2.40;;;;;;;16.50;87.80;96401.78;2090346;28;20231;-59
2023/07/05 08:05:12;;;;;;;3.42;1.92;;;;;;;16.46;86.78;96392.44;2090060;28;20240;-60
2023/07/05 08:06:15;;;;;;;5.75;2.50;;;;;;;16.47;86.26;96384.41;2092526;28;20247;-60
2023/07/05 08:07:17;;;;;;;4.15;2.20;;;;;;;16.33;86.63;96393.31;2091540;28;20213;-60
2023/07/05 08:08:18;;;;;;;5.70;2.50;;;;;;;16.46;87.08;96393.25;2091968;28;20198;-59
2023/07/05 08:09:22;;;;;;;4.32;2.65;;;;;;;16.83;86.17;96391.53;2090906;28;20201;-60
2023/07/05 08:10:24;;;;;;;5.07;2.92;;;;;;;17.02;85.38;96393.69;2092479;28;20285;-60
2023/07/05 08:11:25;;;;;;;4.18;2.65;;;;;;;17.39;83.03;96389.09;2092844;28;20538;-60
2023/07/05 08:12:27;;;;;;;4.80;2.58;;;;;;;17.48;83.04;96390.19;2092788;28;20202;-59
2023/07/05 08:13:31;;;;;;;4.78;2.63;;;;;;;17.48;83.17;96397.28;2091688;28;20210;-60
2023/07/05 08:14:32;;;;;;;3.63;1.80;;;;;;;17.47;84.16;96393.78;2089699;28;20727;-60
2023/07/05 08:15:34;;;;;;;5.32;2.70;;;;;;;17.46;84.82;96403.50;2091447;28;20293;-60
2023/07/05 08:27:56;;;;;;;8.45;3.50;;;;;;;15.93;85.92;96411.94;2098457;27;20569;-59
2023/07/05 08:28:58;;;;;;;5.63;2.90;;;;;;;16.21;84.87;96417.06;2097980;28;20189;-59
2023/07/05 08:29:59;;;;;;;14.95;3.50;;;;;;;16.41;85.27;96410.38;2090412;28;20529;-59
2023/07/05 08:31:03;;;;;;;5.90;3.38;;;;;;;16.71;82.55;96417.84;2090601;28;20209;-59
2023/07/05 08:32:05;;;;;;;4.88;2.97;;;;;;;17.08;81.84;96425.72;2099970;28;20875;-59
2023/07/05 08:33:07;;;;;;;6.45;3.25;;;;;;;17.27;80.93;96416.44;2100795;28;20325;-59
2023/07/05 08:34:10;;;;;;;4.95;2.55;;;;;;;17.07;79.60;96418.75;2088131;28;20657;-60
2023/07/05 08:35:12;;;;;;;7.28;3.17;;;;;;;17.06;78.99;96427.59;2090108;28;20570;-59
2023/07/05 08:36:13;;;;;;;6.50;2.88;;;;;;;17.28;80.97;96418.94;2091856;28;20257;-59
2023/07/05 08:37:15;;;;;;;9.68;4.00;;;;;;;17.64;79.70;96418.91;2091479;28;20284;-60
2023/07/05 08:38:18;;;;;;;12.10;3.15;;;;;;;17.94;78.92;96423.63;2091108;28;20227;-59
2023/07/05 08:39:20;;;;;;;6.38;3.70;;;;;;;18.06;77.88;96411.25;2087452;28;20208;-59
2023/07/05 08:40:30;;;;;;;6.95;2.70;;;;;;;18.24;75.78;96413.41;2091113;28;20295;-59
2023/07/05 08:41:44;;;;;;;10.48;2.40;;;;;;;17.89;75.30;96416.97;2090660;28;20196;-59
2023/07/05 08:42:59;;;;;;;4.70;2.85;;;;;;;17.98;75.58;96424.25;2090043;28;20199;-60
2023/07/05 08:44:31;;;;;;;6.65;3.20;;;;;;;17.94;75.09;96426.28;2092062;28;20254;-59
2023/07/05 08:45:39;;;;;;;8.40;3.08;;;;;;;17.77;76.03;96408.22;2091195;28;20685;-59
2023/07/05 08:46:43;;;;;;;8.00;2.90;;;;;;;17.62;75.73;96420.81;2090886;28;20200;-59
2023/07/05 08:47:50;;;;;;;6.65;3.20;;;;;;;17.38;75.62;96421.72;2090961;28;20208;-59
2023/07/05 08:48:59;;;;;;;5.75;2.97;;;;;;;17.04;76.09;96412.84;2088613;28;20200;-59
2023/07/05 08:50:18;;;;;;;5.07;2.72;;;;;;;17.17;76.86;96423.34;2095661;28;20219;-59
2023/07/05 08:51:31;;;;;;;9.40;3.63;;;;;;;17.12;76.43;96416.59;2090238;28;20292;-59
2023/07/05 08:52:38;;;;;;;7.30;3.30;;;;;;;17.19;76.64;96422.28;2091048;28;20338;-59
2023/07/05 08:53:53;;;;;;;5.28;3.28;;;;;;;17.73;77.01;96415.53;2089280;28;20195;-59
2023/07/05 08:54:59;;;;;;;5.00;3.25;;;;;;;17.41;73.98;96410.94;2088191;28;20244;-59
2023/07/05 08:56:06;;;;;;;6.35;2.88;;;;;;;17.57;74.77;96420.31;2087883;28;20203;-59
2023/07/05 08:57:23;;;;;;;6.68;2.75;;;;;;;17.76;73.92;96415.31;2085862;28;20250;-59
2023/07/05 08:58:51;;;;;;;6.22;2.95;;;;;;;17.83;73.55;96417.50;2084811;28;20241;-59
2023/07/05 09:00:11;;;;;;;6.28;2.97;;;;;;;18.19;73.88;96420.88;2086760;28;20276;-59
2023/07/05 09:01:22;;;;;;;9.07;3.83;;;;;;;18.44;72.91;96428.50;2086775;28;20253;-59
2023/07/05 09:02:23;;;;;;;5.80;3.17;;;;;;;18.16;72.75;96432.50;2088038;28;20856;-60
2023/07/05 09:03:30;;;;;;;7.32;4.38;;;;;;;18.05;72.94;96435.16;2090579;28;20210;-59
2023/07/05 09:04:34;;;;;;;5.50;3.17;;;;;;;18.28;72.28;96438.63;2086234;28;20622;-59
2023/07/05 09:05:46;;;;;;;8.13;4.05;;;;;;;18.51;71.23;96442.09;2088363;28;20688;-59
2023/07/05 09:07:00;;;;;;;5.10;3.13;;;;;;;18.85;70.45;96443.81;2085607;28;20200;-59
2023/07/05 09:08:10;;;;;;;10.40;4.97;;;;;;;18.92;69.64;96435.28;2083541;28;20209;-59
2023/07/05 09:09:43;;;;;;;8.13;4.05;;;;;;;18.67;68.44;96431.13;2082769;28;20228;-59
2023/07/05 09:10:59;;;;;;;8.57;4.00;;;;;;;18.83;67.73;96432.50;2088900;28;20199;-60
2023/07/05 09:12:14;;;;;;;7.60;4.00;;;;;;;18.69;66.91;96439.78;2092211;28;20703;-59
2023/07/05 09:13:37;;;;;;;12.32;3.90;;;;;;;18.36;68.05;96444.16;2092595;28;20382;-60
2023/07/05 09:15:14;;;;;;;9.07;4.13;;;;;;;18.60;68.04;96438.72;2089572;28;20306;-60
2023/07/05 09:16:37;;;;;;;6.40;3.70;;;;;;;18.11;67.38;96443.44;2089914;28;20226;-60
2023/07/05 09:18:01;;;;;;;9.18;4.18;;;;;;;18.82;67.80;96458.13;2089041;28;20200;-59
2023/07/05 09:19:15;;;;;;;6.72;4.38;;;;;;;19.30;67.08;96448.13;2087134;28;20244;-60
2023/07/05 09:20:47;;;;;;;5.65;3.10;;;;;;;19.38;65.95;96456.28;2092382;28;20318;-59
2023/07/05 09:21:55;;;;;;;6.47;3.40;;;;;;;19.20;64.86;96448.06;2090791;28;20307;-61
2023/07/05 09:23:00;;;;;;;7.50;4.50;;;;;;;19.06;66.87;96455.31;2090488;28;20296;-59
2023/07/05 09:24:13;;;;;;;6.40;3.50;;;;;;;19.41;65.34;96450.72;2093179;28;20200;-59
2023/07/05 09:25:18;;;;;;;6.95;3.97;;;;;;;19.55;64.36;96452.19;2091012;28;20718;-60
2023/07/05 09:26:25;;;;;;;8.10;4.20;;;;;;;19.65;63.00;96460.22;2090322;28;20247;-60
2023/07/05 09:27:32;;;;;;;12.93;4.03;;;;;;;19.15;64.61;96447.59;2091342;28;20342;-59
2023/07/05 09:28:41;;;;;;;6.47;3.50;;;;;;;18.98;65.07;96454.25;2091194;28;20196;-59
2023/07/05 09:29:50;;;;;;;8.30;3.80;;;;;;;19.64;65.17;96454.09;2089074;28;20231;-60
2023/07/05 09:30:52;;;;;;;7.43;3.85;;;;;;;18.99;63.04;96459.44;2091163;28;20203;-60
2023/07/05 09:31:55;;;;;;;7.72;4.57;;;;;;;18.91;63.78;96454.75;2090277;28;20241;-59
2023/07/05 09:33:05;;;;;;;94.43;26.20;;;;;;;18.94;64.46;96464.25;2092871;28;20191;-59
2023/07/05 09:34:18;;;;;;;7.35;4.25;;;;;;;19.50;64.14;96459.69;2090710;28;20193;-60
2023/07/05 09:35:23;;;;;;;6.80;3.72;;;;;;;19.57;62.36;96463.50;2091115;28;20304;-59
2023/07/05 09:36:26;;;;;;;10.90;4.00;;;;;;;19.89;62.33;96454.69;2091049;28;20200;-59
2023/07/05 09:37:34;;;;;;;7.38;4.25;;;;;;;19.95;61.56;96459.44;2088548;28;20203;-59
2023/07/05 09:38:41;;;;;;;9.63;4.50;;;;;;;19.46;61.85;96474.16;2087261;28;20292;-61
2023/07/05 09:39:59;;;;;;;163.27;57.95;;;;;;;19.13;61.34;96462.75;2085023;28;20231;-61
2023/07/05 09:41:06;;;;;;;7.47;3.38;;;;;;;19.60;62.49;96463.25;2085661;28;20198;-61
2023/07/05 09:42:31;;;;;;;6.55;3.40;;;;;;;20.29;62.44;96469.78;2084821;28;20713;-61
2023/07/05 09:43:35;;;;;;;75.53;27.30;;;;;;;19.66;59.71;96465.38;2085331;28;20657;-61
2023/07/05 09:44:37;;;;;;;117.95;33.97;;;;;;;19.47;59.86;96468.72;2085163;28;20686;-61
2023/07/05 09:45:39;;;;;;;14.57;9.27;;;;;;;19.46;59.56;96468.88;2086414;28;20284;-61
2023/07/05 09:46:41;;;;;;;47.88;35.55;;;;;;;19.46;60.15;96460.94;2087534;28;20200;-61
2023/07/05 09:47:45;;;;;;;18.92;13.80;;;;;;;19.86;60.45;96474.31;2086500;28;20196;-61
2023/07/05 09:48:49;;;;;;;26.63;10.82;;;;;;;19.53;59.43;96462.94;2086716;28;20236;-61
2023/07/05 09:49:50;;;;;;;63.65;29.95;;;;;;;19.76;59.56;96473.41;2086075;28;20598;-60
2023/07/05 09:52:12;;;;;;;39.33;30.45;;;;;;;20.29;59.21;96476.91;2108539;27;20548;-59
2023/07/05 09:53:35;;;;;;;348.67;200.85;;;;;;;20.28;57.61;96472.56;2106338;28;20634;-59
2023/07/05 09:54:37;;;;;;;146.32;132.57;;;;;;;20.17;57.85;96468.19;2097044;28;20353;-58
2023/07/05 09:56:03;;;;;;;65.28;59.55;;;;;;;20.53;58.53;96472.13;2089804;28;20192;-59
2023/07/05 09:57:09;;;;;;;2250.00;999.90;;;;;;;20.71;55.53;96464.38;2081049;28;20224;-59
2023/07/05 09:58:15;;;;;;;1286.10;905.70;;;;;;;20.55;55.91;96469.31;2087093;28;20238;-59
2023/07/05 09:59:21;;;;;;;1907.60;999.90;;;;;;;20.62;55.81;96466.97;2090140;28;20548;-59
2023/07/05 10:00:24;;;;;;;962.60;864.20;;;;;;;20.49;55.27;96461.91;2087112;28;20273;-58
2023/07/05 10:01:26;;;;;;;928.83;846.63;;;;;;;20.67;55.47;96470.03;2088960;28;20555;-58
2023/07/05 10:03:38;;;;;;;1103.40;992.63;;;;;;;20.60;55.08;96471.56;2090457;28;20630;-58
2023/07/05 10:05:54;;;;;;;1424.70;648.83;;;;;;;20.19;53.90;96474.22;2083910;28;20569;-58
2023/07/05 10:08:16;;;;;;;2250.00;999.90;;;;;;;19.88;54.36;96471.53;2082876;28;20604;-57
2023/07/05 10:09:20;;;;;;;707.03;557.38;;;;;;;20.12;56.47;96473.06;2078403;28;20251;-58
2023/07/05 10:11:33;;;;;;;1155.35;704.33;;;;;;;20.35;56.35;96474.56;2083757;28;20555;-58
2023/07/05 10:12:39;;;;;;;2250.00;999.90;;;;;;;19.84;54.67;96457.72;2079496;28;20272;-58
2023/07/05 10:15:19;;;;;;;1464.35;967.38;;;;;;;20.80;55.67;96460.06;2082611;27;20563;-58
2023/07/05 10:17:41;;;;;;;2250.00;999.90;;;;;;;19.95;52.66;96478.00;2082936;28;20561;-58
2023/07/05 10:20:18;;;;;;;2250.00;999.90;;;;;;;20.29;54.85;96484.84;2082842;27;20577;-58
2023/07/05 10:21:21;;;;;;;2250.00;999.90;;;;;;;20.92;54.44;96479.34;2082273;28;20859;-58
2023/07/05 10:23:35;;;;;;;2250.00;999.90;;;;;;;20.83;54.34;96475.69;2100443;27;20574;-58
2023/07/05 10:24:46;;;;;;;2250.00;999.90;;;;;;;21.17;53.64;96480.63;2090840;28;20223;-58
2023/07/05 10:25:48;;;;;;;2250.00;999.90;;;;;;;21.16;53.09;96481.59;2082160;28;20193;-58
2023/07/05 10:26:51;;;;;;;2250.00;999.90;;;;;;;21.24;54.11;96483.56;2081916;28;20250;-58
2023/07/05 10:29:23;;;;;;;2250.00;999.90;;;;;;;21.22;52.59;96488.19;2084171;28;20552;-60
2023/07/05 10:30:27;;;;;;;2250.00;999.90;;;;;;;20.68;49.61;96487.63;2081545;28;20201;-60
2023/07/05 10:31:33;;;;;;;2250.00;999.90;;;;;;;20.86;51.29;96491.34;2082363;28;20207;-60
2023/07/05 10:32:36;;;;;;;2250.00;999.90;;;;;;;21.34;52.60;96488.88;2076668;28;20188;-60
2023/07/05 10:33:40;;;;;;;2250.00;999.90;;;;;;;21.43;52.57;96495.19;2079567;28;20228;-60
2023/07/05 10:34:43;;;;;;;2250.00;999.90;;;;;;;21.55;51.87;96494.09;2076816;28;20225;-60
2023/07/05 10:36:12;;;;;;;2250.00;999.90;;;;;;;21.68;50.38;96499.94;2077571;28;20194;-60
2023/07/05 10:37:28;;;;;;;2250.00;999.90;;;;;;;21.60;50.50;96506.94;2077235;28;20247;-60
2023/07/05 10:38:49;;;;;;;2250.00;999.90;;;;;;;21.57;51.17;96505.41;2076453;28;20594;-60
2023/07/05 10:39:51;;;;;;;2250.00;999.90;;;;;;;21.98;51.15;96510.56;2078933;28;20722;-61
2023/07/05 10:41:00;;;;;;;2250.00;999.90;;;;;;;21.56;50.19;96500.25;2083277;28;20639;-58
2023/07/05 10:42:02;;;;;;;2250.00;999.90;;;;;;;21.44;50.37;96502.19;2080028;28;20245;-58
2023/07/05 10:43:03;;;;;;;2250.00;999.90;;;;;;;21.35;50.49;96506.50;2079128;28;20758;-58
2023/07/05 10:44:13;;;;;;;2250.00;999.90;;;;;;;21.54;51.15;96506.50;2078667;28;20198;-58
2023/07/05 10:45:17;;;;;;;2250.00;999.90;;;;;;;21.71;49.84;96504.13;2076110;28;20226;-58
2023/07/05 10:46:24;;;;;;;2250.00;999.90;;;;;;;21.38;50.86;96503.56;2078498;28;20353;-58
2023/07/05 10:47:28;;;;;;;2250.00;999.90;;;;;;;21.40;51.14;96500.78;2082033;28;20211;-58
2023/07/05 10:48:38;;;;;;;2250.00;999.90;;;;;;;21.34;51.46;96496.84;2078469;28;20208;-58
2023/07/05 10:49:43;;;;;;;2250.00;999.90;;;;;;;22.11;51.47;96503.09;2078595;28;20288;-58
2023/07/05 10:50:45;;;;;;;2250.00;999.90;;;;;;;22.64;51.18;96501.66;2077939;28;20202;-58
2023/07/05 10:51:51;;;;;;;2250.00;999.90;;;;;;;22.66;49.37;96502.38;2075759;28;20198;-58
2023/07/05 10:53:01;;;;;;;2250.00;999.90;;;;;;;22.16;48.51;96492.03;2077155;28;20258;-58
2023/07/05 10:54:36;;;;;;;2250.00;999.90;;;;;;;22.22;48.31;96494.13;2081174;28;20239;-58
2023/07/05 10:56:03;;;;;;;762.70;693.85;;;;;;;22.02;48.56;96499.47;2079327;28;20673;-58
2023/07/05 10:57:16;;;;;;;1818.97;903.30;;;;;;;22.33;48.44;96498.41;2082450;28;20247;-58
2023/07/05 10:58:20;;;;;;;2250.00;999.90;;;;;;;22.49;48.35;96497.81;2082173;28;20241;-58
2023/07/05 10:59:36;;;;;;;695.03;634.53;;;;;;;21.93;47.69;96504.78;2080287;28;20762;-58
2023/07/05 11:00:44;;;;;;;1066.85;915.42;;;;;;;21.79;47.60;96491.00;2078895;28;20296;-58
2023/07/05 11:01:58;;;;;;;900.28;804.70;;;;;;;21.62;47.98;96492.56;2076120;28;20209;-58
2023/07/05 11:03:10;;;;;;;726.00;655.72;;;;;;;21.81;48.10;96498.81;2079184;28;20197;-58
2023/07/05 11:04:18;;;;;;;973.35;866.67;;;;;;;21.75;46.68;96496.72;2078123;28;20575;-58
2023/07/05 11:05:38;;;;;;;943.70;849.03;;;;;;;21.64;46.82;96495.06;2081650;28;20201;-58
2023/07/05 11:08:27;;;;;;;1114.00;999.90;;;;;;;21.56;47.04;96498.44;2101108;27;20564;-58
2023/07/05 11:09:34;;;;;;;983.72;891.90;;;;;;;21.36;47.24;96497.56;2084422;28;20290;-58
2023/07/05 11:10:41;;;;;;;1345.80;999.90;;;;;;;21.26;47.03;96505.53;2075187;28;20247;-58
2023/07/05 11:11:50;;;;;;;1203.18;999.90;;;;;;;21.11;47.22;96488.31;2081958;28;20748;-58
2023/07/05 11:12:53;;;;;;;769.58;701.97;;;;;;;21.42;47.48;96489.03;2079127;28;20197;-57
2023/07/05 11:13:57;;;;;;;986.85;892.88;;;;;;;22.00;46.63;96490.81;2080210;28;20577;-58
2023/07/05 11:14:59;;;;;;;1019.20;930.35;;;;;;;21.82;46.53;96500.50;2072095;28;20221;-58
2023/07/05 11:16:01;;;;;;;1099.53;996.88;;;;;;;21.84;45.72;96499.38;2069270;28;20205;-58
2023/07/05 11:17:13;;;;;;;1186.10;999.90;;;;;;;22.05;46.03;96497.53;2065550;28;20198;-58
2023/07/05 11:18:17;;;;;;;1022.10;931.88;;;;;;;22.50;44.96;96502.16;2068493;28;20198;-57
2023/07/05 11:19:25;;;;;;;1450.57;999.90;;;;;;;21.60;45.99;96498.97;2072501;28;20292;-57
2023/07/05 11:20:36;;;;;;;1398.25;999.90;;;;;;;21.02;47.37;96500.59;2067660;28;20194;-57
2023/07/05 11:23:00;;;;;;;1186.18;999.90;;;;;;;21.12;47.29;96506.75;2083000;28;21271;-59
2023/07/05 11:24:04;;;;;;;1239.60;999.90;;;;;;;21.07;47.54;96490.41;2082388;28;20214;-59
2023/07/05 11:25:12;;;;;;;664.15;597.00;;;;;;;21.80;47.45;96505.09;2083357;28;20334;-57
2023/07/05 11:26:34;;;;;;;1167.95;999.90;;;;;;;22.00;47.38;96500.59;2080319;28;20193;-57
2023/07/05 11:27:35;;;;;;;255.23;234.65;;;;;;;22.16;42.19;96502.66;2080600;28;20805;-57
2023/07/05 11:28:41;;;;;;;8.15;2.65;;;;;;;21.91;42.39;96496.97;2084049;28;20274;-57
2023/07/05 11:29:43;;;;;;;1118.22;999.08;;;;;;;22.44;43.47;96492.94;2083365;28;20220;-57
2023/07/05 11:30:45;;;;;;;1227.15;999.90;;;;;;;22.75;44.06;96495.28;2083006;28;20206;-57
2023/07/05 11:31:46;;;;;;;1208.72;999.90;;;;;;;22.73;45.02;96499.09;2078186;28;20200;-57
2023/07/05 11:33:03;;;;;;;1243.88;999.90;;;;;;;22.60;44.93;96507.41;2078030;28;20193;-57
2023/07/05 11:34:20;;;;;;;1182.32;999.90;;;;;;;22.01;44.93;96505.75;2080903;28;20221;-57
2023/07/05 11:35:49;;;;;;;785.53;722.63;;;;;;;21.56;44.62;96502.91;2078352;28;20661;-57
2023/07/05 11:38:36;;;;;;;280.30;252.85;;;;;;;20.81;45.05;96508.66;2085234;28;20556;-57
2023/07/05 11:39:39;;;;;;;51.33;40.95;;;;;;;20.54;45.50;96502.97;2086122;28;20251;-59
2023/07/05 11:40:59;;;;;;;488.55;440.17;;;;;;;20.15;46.42;96496.63;2084081;28;20230;-58
2023/07/05 11:42:26;;;;;;;815.85;750.17;;;;;;;20.35;47.10;96503.72;2082614;28;20196;-58
2023/07/05 11:43:37;;;;;;;1223.45;999.90;;;;;;;20.66;46.98;96506.34;2082022;28;20208;-59
2023/07/05 11:44:40;;;;;;;1178.88;999.90;;;;;;;20.73;46.88;96504.03;2082039;28;20253;-59
2023/07/05 11:45:48;;;;;;;1130.30;999.90;;;;;;;20.76;47.27;96497.59;2083585;28;20204;-58
2023/07/05 11:46:49;;;;;;;1291.05;999.90;;;;;;;20.97;46.41;96508.13;2079135;28;20696;-59
2023/07/05 11:47:51;;;;;;;1200.18;999.90;;;;;;;20.80;46.72;96507.81;2079424;28;20220;-58
2023/07/05 11:48:53;;;;;;;1147.53;999.90;;;;;;;20.73;46.49;96506.69;2082962;28;20197;-59
2023/07/05 11:50:06;;;;;;;1382.57;999.90;;;;;;;21.07;46.68;96501.03;2076526;28;20775;-58
2023/07/05 11:52:32;;;;;;;1014.30;925.92;;;;;;;20.37;47.06;96506.25;2101148;27;20566;-57
2023/07/05 11:53:33;;;;;;;1142.30;999.90;;;;;;;20.41;47.13;96512.13;2096525;28;20192;-57
2023/07/05 11:54:48;;;;;;;1239.28;999.90;;;;;;;20.79;46.98;96514.09;2093917;28;20224;-57
2023/07/05 11:55:50;;;;;;;1117.63;997.03;;;;;;;20.59;46.85;96520.28;2077499;28;20203;-57
2023/07/05 11:56:53;;;;;;;835.85;767.47;;;;;;;20.36;46.35;96515.16;2080914;28;20197;-57
2023/07/05 11:58:01;;;;;;;1006.45;920.13;;;;;;;20.62;46.31;96510.25;2078621;28;20196;-57
2023/07/05 11:59:06;;;;;;;1222.70;999.90;;;;;;;21.02;46.47;96508.56;2080617;28;20207;-57
2023/07/05 12:00:14;;;;;;;1125.95;997.63;;;;;;;21.17;45.85;96506.34;2069836;28;20226;-57
2023/07/05 12:01:26;;;;;;;954.65;869.38;;;;;;;21.48;45.72;96509.72;2068900;28;20198;-57
2023/07/05 12:02:43;;;;;;;1008.80;921.78;;;;;;;21.20;46.16;96500.75;2071130;28;20190;-57
2023/07/05 12:03:52;;;;;;;1024.60;924.85;;;;;;;21.44;45.78;96503.00;2074389;28;20853;-57
2023/07/05 12:04:58;;;;;;;48.55;43.10;;;;;;;21.36;43.90;96501.03;2072049;28;20224;-57
2023/07/05 12:06:14;;;;;;;17.10;5.03;;;;;;;21.07;44.64;96505.50;2071803;28;20681;-58
2023/07/05 12:07:15;;;;;;;41.05;34.08;;;;;;;21.03;45.77;96512.91;2072355;28;20665;-57
2023/07/05 12:08:24;;;;;;;22.88;16.20;;;;;;;21.13;45.07;96507.63;2070636;28;20201;-58
2023/07/05 12:09:36;;;;;;;6.50;3.67;;;;;;;20.65;45.11;96507.31;2072274;28;20245;-58
2023/07/05 12:10:41;;;;;;;10.05;2.55;;;;;;;20.77;44.96;96508.06;2071065;28;20198;-58
2023/07/05 12:11:43;;;;;;;7.57;2.28;;;;;;;21.01;44.17;96510.38;2069239;28;20634;-58
2023/07/05 12:12:44;;;;;;;6.97;2.30;;;;;;;21.24;43.53;96514.59;2075112;28;20196;-58
2023/07/05 12:13:45;;;;;;;12.38;3.00;;;;;;;21.57;43.25;96505.41;2071672;28;20206;-57
2023/07/05 12:14:48;;;;;;;7.53;2.13;;;;;;;21.92;43.24;96516.44;2070436;28;20257;-57
2023/07/05 12:15:50;;;;;;;9.10;2.50;;;;;;;22.11;42.86;96508.41;2069308;28;20234;-58
2023/07/05 12:16:52;;;;;;;6.10;2.10;;;;;;;22.19;42.91;96523.63;2071452;28;20639;-58
2023/07/05 12:17:54;;;;;;;6.57;2.08;;;;;;;22.39;42.84;96507.66;2072594;28;20891;-58
2023/07/05 12:18:56;;;;;;;7.22;2.33;;;;;;;22.42;42.43;96523.31;2071887;28;20201;-58
2023/07/05 12:19:57;;;;;;;14.43;2.33;;;;;;;22.28;42.56;96513.97;2068260;28;20961;-58
2023/07/05 12:21:04;;;;;;;6.20;2.10;;;;;;;22.31;42.08;96517.16;2070945;28;20193;-58
2023/07/05 12:22:13;;;;;;;7.53;2.13;;;;;;;22.65;42.58;96511.34;2073670;28;20201;-58
2023/07/05 12:23:17;;;;;;;6.20;2.40;;;;;;;22.87;42.39;96517.25;2069568;28;20692;-58
2023/07/05 12:24:19;;;;;;;9.68;2.00;;;;;;;22.86;41.94;96520.06;2070926;28;20213;-58
2023/07/05 12:25:20;;;;;;;11.80;2.30;;;;;;;22.85;42.31;96513.88;2073428;28;20393;-58
2023/07/05 12:26:23;;;;;;;11.52;2.25;;;;;;;23.44;41.97;96517.03;2072057;28;20229;-58
2023/07/05 12:27:29;;;;;;;4.90;1.95;;;;;;;23.46;41.38;96515.06;2070107;28;20195;-58
2023/07/05 12:28:32;;;;;;;6.05;2.05;;;;;;;23.68;41.07;96517.41;2068633;28;20211;-58
2023/07/05 12:29:34;;;;;;;4.70;2.05;;;;;;;23.53;41.55;96514.44;2066716;28;20229;-58
2023/07/05 12:31:10;;;;;;;6.50;2.17;;;;;;;23.75;41.42;96513.13;2072868;28;20233;-58
2023/07/05 12:32:17;;;;;;;4.72;2.03;;;;;;;23.51;41.21;96511.09;2072345;28;20218;-57
2023/07/05 12:33:27;;;;;;;6.40;1.98;;;;;;;23.57;40.77;96513.97;2072884;28;20205;-58
2023/07/05 12:34:29;;;;;;;5.38;2.30;;;;;;;22.86;41.98;96512.91;2070478;28;20225;-58
2023/07/05 12:35:30;;;;;;;4.50;2.20;;;;;;;22.61;42.26;96509.97;2075217;28;20698;-57
2023/07/05 12:36:41;;;;;;;6.30;2.17;;;;;;;22.46;42.65;96522.03;2074156;28;20194;-58
2023/07/05 12:37:43;;;;;;;7.53;2.33;;;;;;;22.69;43.14;96511.88;2073292;28;20271;-57
2023/07/05 12:38:47;;;;;;;6.00;2.15;;;;;;;22.65;43.62;96511.34;2072564;28;20233;-57
2023/07/05 12:39:48;;;;;;;10.13;2.33;;;;;;;23.30;42.86;96506.91;2071767;28;20368;-58
2023/07/05 12:40:54;;;;;;;6.57;2.33;;;;;;;23.79;42.03;96503.81;2071893;28;20810;-57
2023/07/05 12:42:12;;;;;;;3.67;1.73;;;;;;;23.57;40.17;96499.81;2071247;28;20202;-57
2023/07/05 12:43:22;;;;;;;4.85;2.25;;;;;;;23.65;40.80;96499.88;2071150;28;20204;-58
2023/07/05 12:44:24;;;;;;;6.85;2.53;;;;;;;23.67;41.51;96505.91;2068729;28;20526;-57
2023/07/05 12:45:30;;;;;;;3.88;2.05;;;;;;;23.90;41.30;96510.75;2067634;28;20210;-58
2023/07/05 12:46:34;;;;;;;4.57;2.42;;;;;;;23.44;41.05;96510.88;2066447;28;20280;-57
2023/07/05 12:47:35;;;;;;;5.50;2.10;;;;;;;23.38;42.23;96514.16;2069908;28;20225;-57
2023/07/05 12:48:37;;;;;;;6.53;2.05;;;;;;;23.44;42.06;96514.38;2071974;28;20210;-57
2023/07/05 12:49:39;;;;;;;3.53;1.67;;;;;;;22.93;40.77;96516.66;2068257;28;20246;-58
2023/07/05 12:50:42;;;;;;;5.43;2.40;;;;;;;22.43;41.87;96501.06;2066265;28;20193;-57
2023/07/05 12:51:49;;;;;;;5.93;2.47;;;;;;;22.53;41.80;96501.84;2071458;28;20629;-58
2023/07/05 12:53:06;;;;;;;4.05;1.90;;;;;;;22.87;42.66;96501.28;2070201;28;20219;-58
2023/07/05 12:54:09;;;;;;;4.60;1.83;;;;;;;22.81;42.40;96505.34;2070216;28;20206;-57
2023/07/05 12:55:24;;;;;;;4.85;2.30;;;;;;;22.81;43.07;96505.34;2068916;28;20704;-57
2023/07/05 12:56:38;;;;;;;4.03;2.05;;;;;;;22.98;42.96;96498.41;2067380;28;20210;-58
2023/07/05 12:57:39;;;;;;;5.20;2.10;;;;;;;23.27;42.81;96502.72;2071146;28;20189;-58
2023/07/05 12:58:49;;;;;;;4.63;2.28;;;;;;;23.08;42.30;96510.81;2072313;28;20201;-57
2023/07/05 12:59:51;;;;;;;5.20;2.60;;;;;;;23.15;42.17;96502.09;2072193;28;20591;-57
2023/07/05 13:01:12;;;;;;;6.85;2.15;;;;;;;23.54;41.84;96510.78;2072876;28;20253;-57
2023/07/05 13:02:25;;;;;;;4.88;2.08;;;;;;;23.74;41.55;96506.94;2070309;28;20208;-57
2023/07/05 13:03:29;;;;;;;4.70;1.80;;;;;;;23.54;41.08;96500.13;2067964;28;20753;-58
2023/07/05 13:04:35;;;;;;;3.80;1.90;;;;;;;23.39;40.92;96515.78;2064770;28;20222;-57
2023/07/05 13:05:40;;;;;;;3.58;1.83;;;;;;;23.23;41.08;96508.50;2067685;28;20197;-57
2023/07/05 13:06:44;;;;;;;6.53;2.10;;;;;;;23.61;41.35;96515.34;2065368;28;20205;-57
2023/07/05 13:07:48;;;;;;;5.60;2.30;;;;;;;23.33;41.10;96511.09;2063660;28;20252;-57
2023/07/05 13:08:51;;;;;;;4.22;2.00;;;;;;;22.98;41.78;96511.72;2066591;28;20247;-58
2023/07/05 13:10:00;;;;;;;4.22;2.33;;;;;;;23.22;41.54;96507.66;2067496;28;20230;-58
2023/07/05 13:11:04;;;;;;;3.40;1.80;;;;;;;23.52;41.44;96510.94;2064897;28;20206;-58
2023/07/05 13:12:11;;;;;;;5.93;1.92;;;;;;;23.17;41.29;96512.59;2062070;28;20198;-57
2023/07/05 13:13:33;;;;;;;4.53;1.80;;;;;;;23.86;41.06;96498.69;2065465;28;20588;-57
2023/07/05 13:14:37;;;;;;;5.35;2.05;;;;;;;23.48;41.37;96506.91;2065885;28;20403;-57
2023/07/05 13:15:40;;;;;;;4.60;2.47;;;;;;;23.36;40.98;96518.78;2064931;28;20198;-58
2023/07/05 13:16:56;;;;;;;5.53;2.70;;;;;;;23.26;41.04;96513.50;2065036;28;20201;-58
2023/07/05 13:18:27;;;;;;;5.13;2.28;;;;;;;23.55;40.57;96512.47;2065238;28;20767;-57
2023/07/05 13:19:57;;;;;;;8.30;1.98;;;;;;;23.81;40.33;96501.84;2066227;28;20639;-58
2023/07/05 13:21:11;;;;;;;5.15;1.65;;;;;;;23.99;41.00;96504.50;2065437;28;20297;-57
2023/07/05 13:22:16;;;;;;;4.43;1.80;;;;;;;24.90;40.32;96503.16;2066198;28;20198;-58
2023/07/05 13:23:28;;;;;;;5.05;2.42;;;;;;;24.69;39.91;96510.75;2067051;28;20209;-58
2023/07/05 13:24:30;;;;;;;2.97;1.80;;;;;;;24.63;40.08;96506.84;2068570;28;20240;-58
2023/07/05 13:25:44;;;;;;;3.75;1.98;;;;;;;24.53;40.02;96507.00;2064353;28;20755;-57
2023/07/05 13:26:47;;;;;;;4.68;2.03;;;;;;;24.68;40.02;96504.56;2064090;28;20226;-57